Meteo Giornale » Osservazioni meteo Brasile » Usiminas-Paraiso
ore: 00:00 - Osservazioni Meteo Usiminas-Paraiso
Lat. 19° 28' S Lon. 42° 29' W Alt. 239 metri s.l.m.
26 °C
Sereno
Temp. 24 Ore
16 °C
33 °C
Sud
16.7 Km/h
Dew point 19 °C
Umidità 65 %
Visibilità 10 Km
Il sole sorge alle ore 05:56
Il sole tramonta alle ore 17:42
| Data e Ora | Cielo e Fenomeni | T °C | DP °C | Um. % | Pres. hPa | Vis. km | Vento km/h | |
|---|---|---|---|---|---|---|---|---|
| Oggi h: 00:00 | Sereno | 26 | 19 | 65 | 1015 | 10 | S 16.7 | |
| Ieri h: 23:00 | Sereno | 26 | 19 | 65 | 1014 | 10 | S/SO 14.8 | |
| Ieri h: 22:00 | Sereno | 26 | 20 | 69 | 1013 | 10 | S/SO 14.8 | |
| Ieri h: 21:00 | Sereno | 22 | 21 | 94 | 1011 | 10 | N 5.5 | |
| Ieri h: 20:00 | Sereno | 23 | 20 | 83 | 1011 | 10 | N 3.7 | |
| Ieri h: 19:00 | Sereno | 25 | 20 | 73 | 1010 | 10 | N 1.8 | |
| Ieri h: 18:00 | Sereno | 25 | 21 | 78 | 1010 | 10 | N 3.7 | |
| Ieri h: 17:00 | Sereno | 28 | 21 | 65 | 1009 | 10 | N 3.7 | |
| Ieri h: 16:00 | Sereno | 33 | 18 | 41 | 1009 | 10 | N/NE 9.3 | |
| Ieri h: 15:00 | Sereno | 32 | 18 | 43 | 1009 | 10 | N/NE 18.5 | |
| Ieri h: 14:00 | Sereno | 32 | 19 | 46 | 1010 | 10 | NE 13 | |
| Ieri h: 13:00 | Sereno | 31 | 19 | 48 | 1012 | 10 | NE 14.8 | |
| Ieri h: 12:00 | Sereno | 29 | 19 | 54 | 1013 | 10 | E/NE 16.7 | |
| Ieri h: 11:00 | Poco Nuvoloso | 29 | 19 | 54 | 1014 | 10 | N/NE 13 | |
| Ieri h: 10:00 | Molto Nuvoloso | 26 | 19 | 65 | 1016 | 10 | N/NE 14.8 | |
| Ieri h: 09:00 | Molto Nuvoloso | 25 | 19 | 69 | 1016 | 10 | N/NE 13 | |
| Ieri h: 08:00 | Molto Nuvoloso | 23 | 19 | 78 | 1016 | 10 | N/NE 9.3 | |
| Ieri h: 07:00 | Coperto | 21 | 19 | 88 | 1016 | 10 | N 5.5 | |
| Ieri h: 06:00 | Coperto | 20 | 18 | 88 | 1015 | 10 | N/NE 9.3 | |
| Ieri h: 05:00 | Nuvoloso | 17 | 16 | 93 | 1015 | 10 | N 5.5 | |
| Ieri h: 04:00 | Sereno | 16 | 15 | 93 | 1015 | 10 | N 0 | |
| Ieri h: 03:00 | Sereno | 18 | 16 | 88 | 1015 | 10 | N 3.7 | |
| Ieri h: 02:00 | Sereno | 19 | 17 | 88 | 1015 | 10 | NE 9.3 | |
| Ieri h: 01:00 | Sereno | 18 | 17 | 93 | 1015 | 10 | N 5.5 | |



